Time;durP1;ratioP1;P1;durP2;ratioP2;P2;SDS_P1;SDS_P2;PMS_P1;PMS_P2;Temp;Humidity;BMP_temperature;BMP_pressure;BME280_temperature;BME280_humidity;BME280_pressure;Samples;Min_cycle;Max_cycle;Signal;HPM_P1;HPM_P2
2021/03/19 00:00:58;;;;;;;20.13;14.02;;;2.30;78.80;;;0.38;74.85;95926.69;4955503;28;20039;-72
2021/03/19 00:03:24;;;;;;;16.65;12.68;;;2.40;78.50;;;0.38;74.73;95937.03;4949952;28;20261;-72
2021/03/19 00:05:50;;;;;;;18.15;13.48;;;2.40;78.50;;;0.37;74.76;95934.59;4917659;28;20047;-73
2021/03/19 00:08:16;;;;;;;17.70;13.10;;;2.30;78.40;;;0.36;74.58;95938.94;4930782;28;20510;-72
2021/03/19 00:10:41;;;;;;;18.25;13.13;;;2.30;78.50;;;0.33;74.85;95928.88;4944441;28;20549;-72
2021/03/19 00:13:11;;;;;;;19.95;13.40;;;2.20;78.80;;;0.29;75.27;95927.50;4931347;29;20039;-71
2021/03/19 00:15:37;;;;;;;18.63;13.07;;;2.10;79.10;;;0.28;74.77;95928.44;4949787;28;20065;-72
2021/03/19 00:18:03;;;;;;;20.35;14.25;;;2.20;78.80;;;0.25;75.29;95926.94;4950029;28;20452;-72
2021/03/19 00:20:34;;;;;;;19.05;14.07;;;2.20;79.00;;;0.25;75.25;95921.75;4934581;29;20363;-73
2021/03/19 00:23:00;;;;;;;17.27;12.93;;;2.20;79.00;;;0.24;75.69;95927.06;4936326;28;20027;-72
2021/03/19 00:25:26;;;;;;;20.92;14.48;;;2.10;79.30;;;0.21;75.56;95924.72;4964304;28;20519;-72
2021/03/19 00:27:51;;;;;;;20.52;13.77;;;2.10;79.60;;;0.19;75.52;95917.09;4934297;28;20613;-72
2021/03/19 00:30:17;;;;;;;20.63;13.80;;;2.10;79.60;;;0.16;75.35;95925.09;4929796;29;20039;-71
2021/03/19 00:32:43;;;;;;;20.35;13.90;;;2.10;79.70;;;0.13;75.33;95912.44;4934468;29;20127;-72
2021/03/19 00:35:09;;;;;;;20.73;14.27;;;2.10;79.70;;;0.13;75.83;95914.22;4934240;29;20676;-72
2021/03/19 00:37:35;;;;;;;21.40;14.25;;;2.10;79.60;;;0.08;75.44;95913.78;4954605;28;20470;-73
2021/03/19 00:40:03;;;;;;;21.17;14.98;;;2.00;80.10;;;0.07;75.74;95917.31;4940890;29;20071;-72
2021/03/19 00:42:28;;;;;;;20.20;14.70;;;2.00;79.80;;;0.03;76.02;95913.34;4956097;28;20121;-72
2021/03/19 00:44:54;;;;;;;22.65;14.85;;;2.00;80.00;;;0.01;76.21;95912.66;4947317;28;20525;-72
2021/03/19 00:47:20;;;;;;;21.00;14.43;;;2.00;79.90;;;-0.04;76.33;95913.84;4948940;29;20051;-72
2021/03/19 00:49:46;;;;;;;22.77;15.38;;;1.80;80.10;;;-0.07;75.96;95910.72;4920878;29;20456;-72
2021/03/19 00:52:11;;;;;;;19.70;15.18;;;1.80;80.40;;;-0.10;76.27;95908.38;4937660;28;20074;-73
2021/03/19 00:54:37;;;;;;;21.38;15.27;;;1.80;80.30;;;-0.12;76.31;95911.09;4929305;29;20078;-73
2021/03/19 00:57:03;;;;;;;21.63;15.85;;;1.70;80.60;;;-0.17;76.53;95910.66;4935089;28;20503;-72
2021/03/19 00:59:29;;;;;;;21.38;15.88;;;1.70;80.70;;;-0.19;76.67;95904.81;4963913;28;20035;-73
2021/03/19 01:01:55;;;;;;;22.85;15.75;;;1.70;80.70;;;-0.19;76.34;95907.41;4951731;28;20122;-71
2021/03/19 01:04:20;;;;;;;23.83;15.77;;;1.70;80.50;;;-0.23;76.65;95905.97;4936306;28;20189;-72
2021/03/19 01:06:46;;;;;;;20.65;15.10;;;1.70;80.80;;;-0.24;76.60;95906.13;4950387;28;20035;-73
2021/03/19 01:09:12;;;;;;;20.35;15.57;;;1.70;80.60;;;-0.26;76.95;95903.66;4937436;28;20037;-72
2021/03/19 01:11:38;;;;;;;23.15;16.45;;;1.70;80.60;;;-0.28;77.10;95905.56;4952633;28;20059;-72
2021/03/19 01:14:03;;;;;;;21.00;15.15;;;1.70;80.40;;;-0.29;76.88;95901.34;4944259;29;20031;-72
2021/03/19 01:16:29;;;;;;;22.20;15.40;;;1.70;80.50;;;-0.30;76.77;95891.94;4942911;28;20122;-71
2021/03/19 01:18:55;;;;;;;19.92;14.98;;;1.70;80.40;;;-0.30;76.85;95889.34;4920189;28;20043;-72
2021/03/19 01:21:21;;;;;;;22.90;15.43;;;1.70;80.40;;;-0.29;76.92;95900.50;4940922;28;20031;-72
2021/03/19 01:23:47;;;;;;;22.13;15.52;;;1.70;80.30;;;-0.31;77.00;95893.72;4933750;28;20038;-72
2021/03/19 01:26:16;;;;;;;22.70;16.20;;;1.70;80.30;;;-0.31;78.11;95887.72;4951917;28;20051;-72
2021/03/19 01:28:42;;;;;;;21.85;15.88;;;1.70;80.20;;;-0.33;77.30;95880.09;4932660;29;20035;-72
2021/03/19 01:31:08;;;;;;;20.98;16.02;;;1.60;80.60;;;-0.36;77.42;95884.72;4917537;29;20111;-72
2021/03/19 01:33:34;;;;;;;23.77;16.77;;;1.60;80.80;;;-0.41;77.09;95881.69;4917748;28;20709;-72
2021/03/19 01:36:05;;;;;;;24.85;17.17;;;1.50;81.10;;;-0.45;77.59;95888.06;4937649;28;20042;-71
2021/03/19 01:38:33;;;;;;;22.60;16.80;;;1.50;81.40;;;-0.49;77.67;95879.72;4952502;28;20035;-72
2021/03/19 01:40:58;;;;;;;24.95;17.88;;;1.50;81.40;;;-0.51;77.84;95880.78;4951548;28;20039;-72
2021/03/19 01:43:33;;;;;;;23.52;16.92;;;1.40;81.80;;;-0.53;78.22;95877.53;4920520;28;20115;-72
2021/03/19 01:46:42;;;;;;;24.27;17.58;;;1.40;81.40;;;-0.55;80.30;95879.41;4959233;28;20035;-72
2021/03/19 01:50:04;;;;;;;25.10;17.92;;;1.40;81.40;;;-0.59;80.53;95878.84;4945931;28;20059;-72
2021/03/19 01:53:26;;;;;;;26.58;19.13;;;1.40;81.60;;;-0.64;80.64;95870.66;4954511;28;20443;-72
2021/03/19 01:56:29;;;;;;;;;;;1.30;82.00;;;-0.70;80.75;95876.31;4962602;28;20114;-72
2021/03/19 01:59:51;;;;;;;26.38;19.42;;;1.20;82.20;;;-0.75;80.76;95871.53;4958104;28;19929;-72
2021/03/19 02:03:13;;;;;;;25.73;19.65;;;1.20;82.30;;;-0.79;80.90;95869.31;4949490;28;20034;-73
2021/03/19 02:06:35;;;;;;;25.25;18.55;;;1.10;82.60;;;-0.78;80.98;95876.13;4951682;28;20043;-72
2021/03/19 02:09:57;;;;;;;27.20;20.25;;;1.20;82.30;;;-0.80;81.18;95871.09;4955681;28;20118;-72
2021/03/19 02:13:19;;;;;;;28.17;19.98;;;1.20;82.20;;;-0.83;81.05;95861.03;4958077;28;20035;-72
2021/03/19 02:17:01;;;;;;;27.77;20.23;;;1.10;82.40;;;-0.85;81.48;95862.91;4966327;28;20038;-73
2021/03/19 02:20:23;;;;;;;27.35;20.35;;;1.10;82.40;;;-0.86;81.14;95863.84;4853003;29;20034;-72
2021/03/19 02:23:45;;;;;;;29.67;21.95;;;1.20;82.60;;;-0.88;81.71;95864.94;4882478;29;20041;-71
2021/03/19 02:27:07;;;;;;;27.95;20.45;;;1.10;82.80;;;-0.90;81.25;95866.81;4949864;28;20046;-72
2021/03/19 02:30:30;;;;;;;29.35;21.05;;;1.10;82.80;;;-0.92;81.52;95866.91;4967214;28;20414;-72
2021/03/19 02:32:55;;;;;;;31.33;21.27;;;1.10;82.90;;;-0.96;78.50;95868.09;4951460;28;20031;-72
2021/03/19 02:35:22;;;;;;;30.80;22.42;;;1.10;83.10;;;-0.95;78.78;95867.16;4928728;28;20590;-72
2021/03/19 02:37:48;;;;;;;31.67;21.02;;;1.00;83.20;;;-0.96;78.91;95875.84;4932523;29;20538;-72
2021/03/19 02:40:20;;;;;;;30.15;20.38;;;1.10;82.90;;;-0.94;80.35;95873.97;4945888;28;20043;-73
2021/03/19 02:42:46;;;;;;;29.13;20.85;;;1.10;82.70;;;-0.94;79.25;95868.81;4936051;28;20462;-72
2021/03/19 02:45:21;;;;;;;32.83;22.08;;;1.20;82.50;;;-0.89;80.91;95871.84;4913754;28;20062;-72
2021/03/19 02:47:47;;;;;;;30.13;20.40;;;1.20;82.40;;;-0.88;79.23;95867.50;4950709;28;20042;-72
2021/03/19 02:50:13;;;;;;;30.42;21.17;;;1.20;82.20;;;-0.85;79.03;95857.75;4930396;28;20059;-72
2021/03/19 02:52:41;;;;;;;29.85;21.17;;;1.20;82.10;;;-0.80;79.91;95865.13;4932134;29;20543;-72
2021/03/19 02:55:10;;;;;;;28.05;20.83;;;1.30;82.00;;;-0.78;79.25;95864.03;4942775;28;20064;-72
2021/03/19 02:57:36;;;;;;;29.13;20.80;;;1.40;81.90;;;-0.74;79.17;95862.03;4951371;28;20030;-71
2021/03/19 03:00:05;;;;;;;27.60;20.23;;;1.40;81.80;;;-0.72;79.82;95857.53;4933274;28;20089;-72
2021/03/19 03:02:30;;;;;;;30.13;20.45;;;1.50;81.80;;;-0.68;79.71;95875.28;4934664;28;20038;-72
2021/03/19 03:04:56;;;;;;;28.40;20.20;;;1.50;81.70;;;-0.65;79.55;95867.28;4933046;28;20113;-72
2021/03/19 03:07:29;;;;;;;27.80;19.85;;;1.60;81.60;;;-0.59;80.47;95865.13;4951461;28;20387;-72
2021/03/19 03:09:54;;;;;;;28.15;20.40;;;1.70;81.50;;;-0.56;79.43;95870.84;4922804;29;20038;-72
2021/03/19 03:12:20;;;;;;;29.35;21.13;;;1.60;81.50;;;-0.52;79.36;95871.41;4932359;28;20039;-72
2021/03/19 03:14:46;;;;;;;29.00;19.95;;;1.70;81.50;;;-0.48;79.55;95872.78;4949864;28;20573;-72
2021/03/19 03:17:12;;;;;;;28.90;20.45;;;1.70;81.40;;;-0.44;79.84;95874.19;4934486;28;20041;-72
2021/03/19 03:19:38;;;;;;;31.88;22.10;;;1.80;81.20;;;-0.42;79.50;95864.56;4935519;28;20037;-72
2021/03/19 03:22:04;;;;;;;36.67;24.02;;;1.80;81.20;;;-0.39;79.85;95862.53;4921666;29;20040;-71
2021/03/19 03:24:29;;;;;;;49.40;31.83;;;1.80;81.30;;;-0.36;79.41;95870.03;4937846;28;20053;-71
2021/03/19 03:26:56;;;;;;;35.83;24.08;;;1.80;81.30;;;-0.29;79.65;95870.31;4930273;29;20070;-73
2021/03/19 03:29:23;;;;;;;30.98;22.90;;;1.90;81.60;;;-0.24;79.67;95865.56;4933946;29;20039;-72
2021/03/19 03:31:49;;;;;;;40.00;28.80;;;2.00;82.10;;;-0.18;80.04;95865.09;4919248;28;20047;-72
2021/03/19 03:34:15;;;;;;;31.35;23.60;;;2.10;81.80;;;-0.12;79.67;95864.56;4918108;28;20060;-72
2021/03/19 03:36:41;;;;;;;29.83;19.95;;;2.10;81.30;;;-0.10;79.74;95864.44;4941755;29;20066;-72
2021/03/19 03:39:14;;;;;;;28.88;20.63;;;2.10;80.90;;;-0.09;80.60;95859.13;4939535;28;20042;-71
2021/03/19 03:41:40;;;;;;;28.48;20.75;;;2.00;80.80;;;-0.08;79.23;95863.34;4907891;28;20031;-73
2021/03/19 03:44:06;;;;;;;25.17;19.17;;;2.10;80.70;;;-0.05;79.54;95851.94;4946423;29;20457;-72
2021/03/19 03:46:32;;;;;;;25.95;19.48;;;2.10;80.50;;;-0.04;79.11;95849.22;4931788;28;20042;-72
2021/03/19 03:48:59;;;;;;;27.77;19.65;;;2.10;80.30;;;0.00;79.14;95854.97;4936355;28;20038;-72
2021/03/19 03:51:26;;;;;;;28.38;20.52;;;2.10;80.10;;;0.03;79.36;95853.88;4939250;28;20114;-72
2021/03/19 03:53:53;;;;;;;28.20;20.13;;;2.20;79.90;;;0.03;79.16;95844.38;4949726;28;20038;-72
2021/03/19 03:56:20;;;;;;;29.05;20.23;;;2.10;79.80;;;0.06;78.88;95853.63;4954987;28;20034;-72
2021/03/19 03:58:45;;;;;;;26.90;19.38;;;2.20;80.00;;;0.07;79.16;95852.69;4911170;28;20046;-72
2021/03/19 04:01:11;;;;;;;26.08;19.52;;;2.20;79.80;;;0.08;79.26;95854.31;4939223;28;20046;-71
2021/03/19 04:03:37;;;;;;;27.63;19.83;;;2.30;79.60;;;0.09;79.02;95849.00;4953534;28;20380;-72
2021/03/19 04:06:03;;;;;;;28.48;19.17;;;2.20;79.30;;;0.09;78.54;95849.00;4938704;28;20043;-73
2021/03/19 04:08:29;;;;;;;28.77;19.40;;;2.20;79.30;;;0.12;78.77;95845.34;4928895;29;20043;-72
2021/03/19 04:10:58;;;;;;;31.17;21.27;;;2.30;79.30;;;0.14;78.87;95846.03;4903955;29;20447;-72
2021/03/19 04:13:25;;;;;;;30.63;20.92;;;2.30;79.20;;;0.15;78.32;95845.06;4920926;29;20070;-72
2021/03/19 04:15:51;;;;;;;34.50;23.10;;;2.30;78.80;;;0.16;78.33;95850.09;4919584;29;20114;-73
2021/03/19 04:18:17;;;;;;;29.40;21.02;;;2.40;79.00;;;0.17;78.50;95845.75;4942123;29;20039;-73
2021/03/19 04:20:47;;;;;;;29.00;20.42;;;2.40;78.70;;;0.16;78.95;95839.75;4921874;28;20043;-73
2021/03/19 04:23:13;;;;;;;31.45;21.48;;;2.30;78.70;;;0.14;78.18;95846.03;4932833;29;20783;-75
2021/03/19 04:25:39;;;;;;;28.02;19.95;;;2.30;78.70;;;0.13;78.13;95842.63;4935120;29;20126;-73
2021/03/19 04:28:07;;;;;;;30.23;20.63;;;2.30;78.80;;;0.14;78.09;95843.44;4950947;28;20076;-70
2021/03/19 04:30:39;;;;;;;29.67;20.35;;;2.20;78.80;;;0.11;78.29;95848.88;4961584;28;20522;-73
2021/03/19 04:33:07;;;;;;;33.92;21.00;;;2.20;79.20;;;0.10;78.21;95844.66;4934862;28;20055;-69
2021/03/19 04:35:33;;;;;;;33.83;22.58;;;2.20;79.20;;;0.09;78.41;95853.34;4953982;28;20031;-73
2021/03/19 04:38:03;;;;;;;31.17;21.00;;;2.20;79.00;;;0.09;78.58;95855.94;4924033;29;20557;-71
2021/03/19 04:40:28;;;;;;;27.95;20.42;;;2.30;79.00;;;0.08;78.10;95852.53;4969615;28;20549;-69
2021/03/19 04:42:55;;;;;;;32.60;21.65;;;2.30;79.00;;;0.07;78.56;95858.66;4951287;28;20343;-65
2021/03/19 04:45:21;;;;;;;31.90;22.17;;;2.20;79.10;;;0.09;78.32;95850.78;4935467;28;20049;-68
2021/03/19 04:47:47;;;;;;;31.88;20.80;;;2.20;79.00;;;0.08;78.23;95849.97;4916184;28;20116;-72
2021/03/19 04:50:13;;;;;;;32.95;21.30;;;2.20;79.00;;;0.07;78.63;95855.25;4934074;29;20118;-72
2021/03/19 04:52:38;;;;;;;30.98;21.17;;;2.20;79.20;;;0.08;78.21;95856.91;4951047;28;20035;-72
2021/03/19 04:55:06;;;;;;;30.85;21.65;;;2.20;79.20;;;0.08;78.19;95856.91;4926517;28;20085;-72
2021/03/19 04:57:31;;;;;;;33.70;21.80;;;2.20;79.40;;;0.09;78.63;95861.13;4937061;28;20466;-72
2021/03/19 04:59:57;;;;;;;30.15;20.90;;;2.20;79.40;;;0.08;78.43;95860.28;4920642;28;20050;-72
2021/03/19 05:02:38;;;;;;;33.40;21.90;;;2.30;79.20;;;0.11;79.47;95860.03;4921929;28;20031;-73
2021/03/19 05:05:04;;;;;;;28.33;20.30;;;2.30;79.10;;;0.13;78.17;95859.91;4946068;28;20078;-71
2021/03/19 05:07:30;;;;;;;33.25;20.90;;;2.30;79.10;;;0.14;78.56;95861.53;4942877;29;20494;-73
2021/03/19 05:09:56;;;;;;;29.92;21.35;;;2.40;79.00;;;0.14;78.52;95854.59;4926656;29;20035;-72
2021/03/19 05:12:21;;;;;;;32.88;21.95;;;2.30;78.90;;;0.14;78.05;95861.53;4934312;29;20047;-73
2021/03/19 05:14:47;;;;;;;32.45;20.83;;;2.30;78.80;;;0.16;78.51;95854.47;4933502;29;20036;-73
2021/03/19 05:17:13;;;;;;;30.63;21.52;;;2.30;78.80;;;0.14;78.04;95861.53;4942274;29;20031;-73
2021/03/19 05:19:39;;;;;;;32.20;21.33;;;2.30;78.80;;;0.15;78.16;95863.16;4935252;28;20046;-73
2021/03/19 05:22:05;;;;;;;34.95;22.25;;;2.40;79.00;;;0.17;78.58;95861.28;4918553;29;20119;-73
2021/03/19 05:24:31;;;;;;;35.38;23.00;;;2.40;78.90;;;0.15;78.40;95869.16;4940082;28;20039;-73
2021/03/19 05:26:56;;;;;;;34.15;23.67;;;2.30;79.10;;;0.14;78.31;95862.34;4937560;28;20031;-75
2021/03/19 05:29:22;;;;;;;36.42;23.70;;;2.20;79.10;;;0.12;78.40;95860.84;4930261;28;20495;-73
2021/03/19 05:31:48;;;;;;;38.00;22.90;;;2.10;79.10;;;0.09;78.07;95868.88;4957834;28;20098;-69
2021/03/19 05:34:13;;;;;;;35.60;23.98;;;2.10;79.20;;;0.06;78.06;95871.72;4941763;28;20134;-67
2021/03/19 05:36:39;;;;;;;34.53;23.50;;;2.10;79.50;;;0.05;78.25;95867.50;4931925;29;20665;-67
2021/03/19 05:39:09;;;;;;;35.65;24.15;;;2.10;79.40;;;0.05;78.28;95883.00;4933758;29;20450;-65
2021/03/19 05:41:39;;;;;;;36.40;23.40;;;2.10;79.30;;;0.05;78.38;95876.06;4939152;28;20627;-66
2021/03/19 05:44:25;;;;;;;35.00;23.17;;;2.20;79.20;;;0.07;79.95;95886.28;4935650;29;20188;-66
2021/03/19 05:47:00;;;;;;;33.55;21.42;;;2.20;79.00;;;0.08;78.06;95885.34;4939034;28;20030;-68
2021/03/19 05:49:29;;;;;;;35.10;22.75;;;2.20;78.70;;;0.08;78.29;95877.59;4945875;29;20032;-69
2021/03/19 05:51:59;;;;;;;33.20;21.92;;;2.30;78.80;;;0.10;78.68;95881.66;4950328;28;20038;-69
2021/03/19 05:54:26;;;;;;;35.67;21.98;;;2.30;78.50;;;0.12;78.64;95881.53;4921348;28;20506;-69
2021/03/19 05:57:04;;;;;;;37.08;23.17;;;2.30;78.40;;;0.15;79.50;95889.03;4951995;28;20046;-69
2021/03/19 05:59:36;;;;;;;32.33;21.35;;;2.40;78.40;;;0.17;78.59;95902.66;4969911;28;20054;-69
2021/03/19 06:02:03;;;;;;;32.50;21.75;;;2.40;78.10;;;0.18;78.47;95894.75;4923830;29;20039;-68
2021/03/19 06:04:30;;;;;;;32.17;22.55;;;2.40;77.90;;;0.19;77.92;95895.56;4921174;29;20039;-69
2021/03/19 06:07:03;;;;;;;35.70;22.35;;;2.40;77.80;;;0.20;78.14;95895.44;4932677;29;20464;-69
2021/03/19 06:09:40;;;;;;;31.70;20.98;;;2.40;77.50;;;0.23;77.58;95891.81;4933688;28;20023;-69
2021/03/19 06:12:15;;;;;;;32.38;21.13;;;2.40;77.40;;;0.25;77.51;95889.91;4931843;28;20447;-69
2021/03/19 06:14:54;;;;;;;32.92;20.92;;;2.50;76.60;;;0.27;78.04;95888.81;4953253;28;20078;-69
2021/03/19 06:17:28;;;;;;;30.02;19.75;;;2.50;77.00;;;0.33;78.16;95886.66;4920069;28;20035;-69
2021/03/19 06:20:01;;;;;;;27.48;19.02;;;2.60;76.50;;;0.37;77.09;95898.38;4934869;28;20035;-69
2021/03/19 06:22:58;;;;;;;28.80;18.67;;;2.60;76.00;;;0.41;77.51;95900.56;4936637;28;20042;-70
2021/03/19 06:25:55;;;;;;;29.35;19.52;;;2.60;75.80;;;0.43;77.52;95898.66;4952481;28;20035;-69
2021/03/19 06:28:37;;;;;;;28.38;19.63;;;2.70;75.80;;;0.45;77.20;95906.28;4942118;29;20118;-71
2021/03/19 06:31:16;;;;;;;28.88;20.00;;;2.60;75.70;;;0.47;77.28;95899.25;4933379;29;20028;-69
2021/03/19 06:33:42;;;;;;;32.22;20.83;;;2.70;75.60;;;0.48;76.74;95900.88;4932901;29;20134;-69
2021/03/19 06:36:20;;;;;;;34.10;22.15;;;2.70;76.00;;;0.49;77.62;95902.50;4940429;28;20121;-69
2021/03/19 06:39:28;;;;;;;28.98;18.83;;;2.60;76.40;;;0.52;77.83;95908.25;4952278;28;20502;-70
2021/03/19 06:42:11;;;;;;;28.95;19.40;;;2.70;76.00;;;0.53;77.36;95904.69;4931613;28;20126;-71
2021/03/19 06:44:37;;;;;;;29.20;18.95;;;2.70;76.30;;;0.54;76.35;95906.34;4947186;28;20146;-70
2021/03/19 06:47:07;;;;;;;28.92;18.70;;;2.70;75.60;;;0.55;76.60;95913.16;4934109;28;20483;-70
2021/03/19 06:49:55;;;;;;;30.05;19.13;;;2.70;75.40;;;0.60;76.93;95908.38;4941959;28;20031;-70
2021/03/19 06:52:21;;;;;;;31.90;20.88;;;2.80;75.90;;;0.64;76.20;95906.34;4932556;29;20035;-71
2021/03/19 06:54:56;;;;;;;28.08;18.67;;;2.80;75.60;;;0.67;76.83;95906.06;4958406;28;20045;-70
2021/03/19 06:57:22;;;;;;;27.77;18.00;;;2.90;75.60;;;0.74;76.16;95907.19;4932133;29;20051;-69
2021/03/19 06:59:55;;;;;;;26.83;16.92;;;3.00;75.10;;;0.77;75.88;95906.13;4941789;29;20089;-70
2021/03/19 07:02:26;;;;;;;28.75;17.17;;;3.00;74.50;;;0.82;76.85;95909.94;4933265;29;20056;-70
2021/03/19 07:05:12;;;;;;;;;;;3.00;74.80;;;0.83;75.75;95905.56;4970625;28;20046;-69
2021/03/19 07:07:52;;;;;;;24.67;16.42;;;3.00;74.60;;;0.85;76.01;95911.44;4951066;28;19914;-76
2021/03/19 07:10:49;;;;;;;27.15;18.00;;;2.90;74.90;;;0.87;76.05;95907.75;4949589;29;20035;-75
2021/03/19 07:13:55;;;;;;;26.80;17.13;;;3.10;74.60;;;0.89;75.89;95917.97;4934135;28;20039;-75
2021/03/19 07:16:29;;;;;;;27.98;16.77;;;3.00;75.00;;;0.84;75.93;95912.38;4959383;28;20066;-71
2021/03/19 07:19:24;;;;;;;27.45;17.42;;;2.80;75.30;;;0.78;76.03;95916.34;4917922;29;20102;-73
2021/03/19 07:22:18;;;;;;;26.83;17.20;;;2.80;75.60;;;0.79;76.38;95925.72;4918552;29;20486;-69
2021/03/19 07:24:56;;;;;;;27.88;17.40;;;2.90;75.50;;;0.85;75.97;95922.59;4958095;28;20047;-72
2021/03/19 07:27:37;;;;;;;23.85;16.58;;;3.10;75.40;;;0.90;76.06;95922.19;4939311;28;20495;-69
2021/03/19 07:31:00;;;;;;;25.50;16.97;;;3.10;74.90;;;0.97;76.02;95918.16;4956329;28;20054;-64
2021/03/19 07:33:59;;;;;;;28.73;17.13;;;3.30;74.40;;;1.07;76.28;95918.97;4943762;28;20297;-64
2021/03/19 07:36:59;;;;;;;25.52;16.50;;;3.50;74.30;;;1.14;75.36;95925.25;4959570;28;20039;-64
2021/03/19 07:39:55;;;;;;;27.00;17.50;;;3.50;73.30;;;1.21;76.09;95926.34;4949823;28;20041;-64
2021/03/19 07:42:38;;;;;;;28.63;17.80;;;3.50;73.70;;;1.26;75.17;95925.94;4961167;28;20031;-64
2021/03/19 07:45:23;;;;;;;26.13;17.80;;;3.50;73.30;;;1.33;75.77;95928.78;4957011;28;20089;-63
2021/03/19 07:48:25;;;;;;;27.02;17.75;;;3.50;73.50;;;1.41;75.98;95926.34;4974925;28;20035;-63
2021/03/19 07:50:50;;;;;;;31.48;18.52;;;3.70;73.00;;;1.45;75.36;95927.72;4965044;28;20147;-63
2021/03/19 07:53:33;;;;;;;24.45;17.27;;;3.80;72.70;;;1.47;74.99;95929.22;4976139;28;20068;-66
2021/03/19 07:56:25;;;;;;;25.60;17.30;;;3.80;72.60;;;1.54;75.02;95929.47;4960846;28;20042;-63
2021/03/19 07:59:05;;;;;;;27.42;17.80;;;3.90;72.80;;;1.59;74.78;95929.91;4954445;29;20126;-63
2021/03/19 08:01:49;;;;;;;28.60;17.58;;;4.00;72.60;;;1.63;75.55;95926.06;4939700;29;20094;-66
2021/03/19 08:04:37;;;;;;;27.65;17.85;;;4.00;72.60;;;1.70;75.14;95936.69;4968827;28;20081;-64
2021/03/19 08:07:32;;;;;;;26.58;17.60;;;4.10;72.10;;;1.82;74.90;95933.81;4946151;28;20089;-68
2021/03/19 08:10:25;;;;;;;30.45;19.35;;;4.30;72.20;;;1.93;74.84;95937.22;4959746;28;20027;-63
2021/03/19 08:13:02;;;;;;;33.13;20.67;;;4.20;72.00;;;2.05;74.30;95943.88;4958044;28;20074;-66
2021/03/19 08:15:43;;;;;;;32.25;19.75;;;4.60;71.00;;;2.19;74.70;95938.22;4943266;28;20999;-67
2021/03/19 08:18:34;;;;;;;38.03;24.88;;;4.80;70.90;;;2.32;74.84;95941.34;4933565;28;20036;-63
2021/03/19 08:21:19;;;;;;;27.38;18.50;;;4.90;70.50;;;2.42;73.99;95941.28;4952470;28;20043;-64
2021/03/19 08:24:05;;;;;;;29.65;19.05;;;4.90;69.80;;;2.49;73.57;95944.13;4958571;28;20058;-66
2021/03/19 08:27:16;;;;;;;26.90;16.42;;;4.90;70.10;;;2.56;72.78;95947.81;4959325;28;20045;-66
2021/03/19 08:30:10;;;;;;;25.42;16.77;;;5.10;68.90;;;2.63;72.87;95939.28;4958623;28;20126;-67
2021/03/19 08:33:22;;;;;;;26.58;18.02;;;5.10;69.20;;;2.69;72.49;95949.09;4955412;28;20573;-64
2021/03/19 08:36:33;;;;;;;27.85;18.05;;;5.10;68.50;;;2.78;72.63;95954.41;4898356;29;20191;-64
2021/03/19 08:39:25;;;;;;;28.52;17.73;;;5.10;69.30;;;2.86;72.94;95952.72;4937445;29;20585;-64
2021/03/19 08:42:14;;;;;;;30.67;19.02;;;5.50;68.50;;;2.96;72.73;95958.69;4949371;28;20094;-64
2021/03/19 08:44:40;;;;;;;31.27;20.58;;;5.60;67.70;;;3.07;72.89;95965.44;4957201;28;20398;-64
2021/03/19 08:47:29;;;;;;;29.23;18.90;;;5.60;67.20;;;3.12;72.19;95962.41;4942554;29;20070;-67
2021/03/19 08:49:57;;;;;;;28.27;18.83;;;5.50;68.40;;;3.21;72.60;95961.53;4950110;28;20396;-66
2021/03/19 08:52:37;;;;;;;28.20;19.77;;;5.60;68.00;;;3.31;72.14;95957.09;4940998;29;20035;-66
2021/03/19 08:55:17;;;;;;;32.05;21.27;;;5.90;67.20;;;3.41;71.11;95954.44;4951892;28;20053;-67
2021/03/19 08:57:47;;;;;;;29.27;20.17;;;5.90;67.00;;;3.50;72.17;95951.75;4963736;28;20043;-64
2021/03/19 09:00:25;;;;;;;27.58;18.95;;;6.00;66.70;;;3.59;71.05;95965.63;4971717;28;20387;-64
2021/03/19 09:03:02;;;;;;;30.70;20.30;;;6.10;66.00;;;3.66;70.90;95966.69;4971479;28;20039;-65
2021/03/19 09:05:37;;;;;;;30.10;19.98;;;6.30;65.50;;;3.71;70.61;95963.63;4940383;28;20038;-66
2021/03/19 09:08:24;;;;;;;28.10;18.98;;;6.10;65.30;;;3.73;70.11;95964.31;4912224;29;20532;-66
2021/03/19 09:10:52;;;;;;;28.67;19.65;;;6.10;65.40;;;3.74;71.12;95974.56;4936270;28;20531;-67
2021/03/19 09:13:20;;;;;;;28.75;20.08;;;6.00;66.60;;;3.80;71.35;95970.53;4970358;28;20031;-67
2021/03/19 09:15:47;;;;;;;29.23;20.67;;;6.20;66.20;;;3.89;71.25;95969.66;4920708;29;20036;-68
2021/03/19 09:18:48;;;;;;;27.15;19.90;;;6.40;66.00;;;3.93;70.02;95963.16;4948563;28;20054;-65
2021/03/19 09:21:29;;;;;;;26.35;18.23;;;6.50;65.10;;;3.96;69.15;95965.47;4932286;28;20027;-68
2021/03/19 09:24:07;;;;;;;30.10;20.58;;;6.50;64.00;;;4.01;69.60;95965.81;4941355;28;20133;-66
2021/03/19 09:26:51;;;;;;;28.35;19.05;;;6.60;64.20;;;4.06;69.77;95968.78;4946442;28;20364;-68
2021/03/19 09:29:17;;;;;;;26.42;17.77;;;6.70;64.00;;;4.16;70.33;95969.50;4954037;28;20568;-65
2021/03/19 09:31:54;;;;;;;25.70;18.33;;;6.80;63.40;;;4.26;68.27;95974.59;4953711;28;20039;-66
2021/03/19 09:34:46;;;;;;;27.77;18.88;;;7.00;61.60;;;4.48;68.02;95973.28;4920908;28;20506;-65
2021/03/19 09:37:34;;;;;;;23.80;17.65;;;7.40;61.70;;;4.57;66.93;95964.56;4953084;28;20043;-66
2021/03/19 09:40:06;;;;;;;31.98;22.48;;;7.20;60.50;;;4.72;67.52;95970.81;4970032;28;20194;-65
2021/03/19 09:42:32;;;;;;;26.40;17.90;;;7.40;58.90;;;4.80;68.20;95963.03;4950675;28;20046;-66
2021/03/19 09:45:03;;;;;;;22.60;16.35;;;7.40;58.70;;;4.88;66.32;95970.88;4969227;28;20123;-66
2021/03/19 09:47:46;;;;;;;23.65;16.08;;;7.60;57.60;;;5.03;64.98;95962.47;4952593;28;20028;-68
2021/03/19 09:50:29;;;;;;;23.08;17.05;;;8.10;56.50;;;5.28;66.88;95966.78;4939734;28;20035;-66
2021/03/19 09:53:36;;;;;;;27.38;16.55;;;8.40;57.00;;;5.68;64.18;95963.44;4924474;28;20062;-65
2021/03/19 09:56:18;;;;;;;22.60;16.65;;;9.00;54.60;;;6.06;64.55;95964.59;4967666;28;20086;-66
2021/03/19 09:58:52;;;;;;;24.58;18.05;;;9.40;52.20;;;6.34;63.86;95966.88;4955416;28;20063;-70
2021/03/19 10:01:39;;;;;;;28.65;19.70;;;9.80;53.50;;;6.55;63.79;95961.09;4956453;28;20520;-68
2021/03/19 10:04:06;;;;;;;25.13;17.33;;;10.00;53.20;;;6.70;66.09;95964.66;4932519;28;20494;-67
2021/03/19 10:06:45;;;;;;;21.10;15.32;;;9.70;53.50;;;6.76;63.03;95967.41;4937537;28;20089;-68
2021/03/19 10:09:29;;;;;;;17.33;13.05;;;9.50;53.60;;;6.71;60.44;95971.50;4930503;28;20035;-68
2021/03/19 10:12:03;;;;;;;19.85;14.35;;;9.30;52.10;;;6.63;62.29;95968.94;4936574;28;20479;-69
2021/03/19 10:14:38;;;;;;;20.40;14.48;;;9.10;54.00;;;6.51;61.68;95976.28;4970906;28;20042;-67
2021/03/19 10:17:24;;;;;;;14.75;11.65;;;8.80;54.60;;;6.35;63.10;95973.72;4932995;29;20088;-66
2021/03/19 10:20:02;;;;;;;19.90;13.15;;;8.40;54.60;;;6.12;62.07;95971.78;4937143;28;20055;-66
2021/03/19 10:22:35;;;;;;;14.75;10.52;;;7.90;56.60;;;5.88;62.20;95970.91;4935983;29;20047;-67
2021/03/19 10:25:23;;;;;;;16.10;11.75;;;7.60;56.70;;;5.73;62.27;95965.56;4941266;28;20034;-67
2021/03/19 10:27:55;;;;;;;18.08;14.20;;;7.80;57.30;;;5.63;63.68;95963.09;4938492;29;20027;-67
2021/03/19 10:30:33;;;;;;;19.63;13.77;;;7.90;58.40;;;5.54;63.84;95970.09;4939019;28;20031;-67
2021/03/19 10:33:10;;;;;;;16.52;12.38;;;7.80;59.00;;;5.45;63.63;95973.69;4938681;28;20027;-66
2021/03/19 10:35:37;;;;;;;14.82;11.88;;;7.60;59.00;;;5.32;64.89;95975.91;4934489;29;20458;-67
2021/03/19 10:38:06;;;;;;;14.45;10.85;;;7.50;59.30;;;5.21;64.86;95971.00;4936112;28;20518;-65
2021/03/19 10:40:39;;;;;;;14.75;11.23;;;7.30;58.50;;;5.07;65.11;95979.44;4948416;29;20035;-65
2021/03/19 10:43:14;;;;;;;13.07;9.73;;;7.10;60.40;;;5.00;64.46;95978.44;4949576;28;20031;-65
2021/03/19 10:45:55;;;;;;;13.27;10.07;;;7.30;59.20;;;5.00;64.73;95976.63;4944198;28;20043;-65
2021/03/19 10:48:26;;;;;;;12.98;9.70;;;7.40;59.40;;;4.99;64.00;95976.81;4937769;28;20034;-68
2021/03/19 10:51:06;;;;;;;15.00;11.52;;;7.60;58.00;;;4.98;64.04;95981.19;4964346;28;20504;-64
2021/03/19 10:53:55;;;;;;;14.18;10.55;;;7.40;58.70;;;4.98;63.64;95980.34;4944222;28;20042;-69
2021/03/19 10:56:21;;;;;;;17.40;12.77;;;7.50;58.10;;;4.99;65.20;95971.59;4952047;28;20035;-65